Ljuta — J8B4127 — position and weather

sailwx.info

Track history (hours):
 
Tides and Currents Weather Stations Pressure Air Temp Water Temp Dewpoint Dewpoint Depression Visibility Wind Speed Wind Dir Waves Ship Positions

Ljuta

Last reported at 2015-Jul-25 14:25 UTC. Time now 2015-Aug-01 07:48 UTC.
Position N 36°53' E 006°55'.

Length 177 m; draft 9.6 m.

Type: Cargo ship. MMSI: 377715000.

Date/timePositionNaut miles runAvg speedWind from/ knotsBaromVisibWave heightAir tempDewpointWater temp
2015-Jul-25 14:25N 36°53' E 006°55'1 1.3
2015-Jul-25 13:33N 36°54' E 006°54'  
2015-Jul-22 18:09N 36°55' E 006°55'0 0.0
2015-Jul-22 17:33N 36°55' E 006°55'0 0.0
2015-Jul-21 14:06N 36°55' E 006°55'1 0.0
2015-Jul-20 02:29N 36°55' E 006°56'3 3.6
2015-Jul-20 01:33N 36°58' E 006°54'1111.4
2015-Jul-20 00:33N 37°05' E 006°42'2711.8
2015-Jul-19 22:17N 37°10' E 006°09'1512.6
2015-Jul-19 21:05N 37°09' E 005°51'713.0
2015-Jul-19 20:33N 37°08' E 005°42'1413.6
2015-Jul-19 19:33N 37°07' E 005°25'3913.0
2015-Jul-19 16:33N 37°04' E 004°36'2512.4
2015-Jul-19 14:33N 37°02' E 004°05'1312.8
2015-Jul-19 13:33N 37°01' E 003°49'1312.8
2015-Jul-19 12:33N 37°00' E 003°33'1312.8
2015-Jul-19 11:33N 36°58' E 003°18'1313.2
2015-Jul-19 10:33N 36°55' E 003°01'1313.1
2015-Jul-19 09:33N 36°53' E 002°45'1312.9
2015-Jul-19 08:33N 36°50' E 002°29'2812.9
2015-Jul-19 06:23N 36°44' E 001°55'1313.1
2015-Jul-19 05:25N 36°42' E 001°40'1112.6
2015-Jul-19 04:33N 36°39' E 001°26'5513.6
2015-Jul-19 00:30N 36°31' E 000°19'1513.4
2015-Jul-18 23:22N 36°28' E 000°00'1113.3
2015-Jul-18 22:32N 36°26' W 000°13'1313.2
2015-Jul-18 21:33N 36°24' W 000°29'1413.3
2015-Jul-18 20:32N 36°22' W 000°46'29413.2
2015-Jul-17 22:12N 36°02' W 006°49'813.2
2015-Jul-17 21:34N 36°04' W 006°59'1313.3
2015-Jul-17 20:34N 36°07' W 007°15'1313.1
2015-Jul-17 19:34N 36°11' W 007°31'1313.4
2015-Jul-17 18:34N 36°14' W 007°47'1313.2
2015-Jul-17 17:33N 36°18' W 008°03'1413.4
2015-Jul-17 16:29N 36°21' W 008°20'1313.3
2015-Jul-17 15:28N 36°25' W 008°36'1213.1
2015-Jul-17 14:33N 36°28' W 008°51'2612.8
2015-Jul-17 12:30N 36°38' W 009°21'1313.0
2015-Jul-17 11:31N 36°48' W 009°32'2713.5
2015-Jul-17 09:33N 37°13' W 009°41'1413.4
2015-Jul-17 08:31N 37°27' W 009°44'1413.1
2015-Jul-17 07:27N 37°40' W 009°48'1213.3
2015-Jul-17 06:33N 37°52' W 009°52'1313.1
2015-Jul-17 05:33N 38°04' W 009°57'1312.9
2015-Jul-17 04:33N 38°17' W 009°60'1312.7
2015-Jul-17 03:33N 38°30' W 010°03'1313.1
2015-Jul-17 02:34N 38°42' W 010°06'1312.9
2015-Jul-17 01:33N 38°55' W 010°06'1312.8
2015-Jul-17 00:33N 39°08' W 010°06'1413.4
2015-Jul-16 23:32N 39°22' W 010°06'3113.5
2015-Jul-16 21:14N 39°53' W 010°06'  
Track history (hours):
 
Tides and Currents Weather Stations Pressure Air Temp Water Temp Dewpoint Dewpoint Depression Visibility Wind Speed Wind Dir Waves Ship Positions

Ljuta

Last reported at 2015-Jul-25 14:25 UTC. Time now 2015-Aug-01 07:48 UTC.
Position N 36°53' E 006°55'.

Length 177 m; draft 9.6 m.

Type: Cargo ship. MMSI: 377715000.

Date/timePositionNaut miles runAvg speedWind from/ knotsBaromVisibWave heightAir tempDewpointWater temp
2015-Jul-25 14:25N 36°53' E 006°55'1 1.3
2015-Jul-25 13:33N 36°54' E 006°54'  
2015-Jul-22 18:09N 36°55' E 006°55'0 0.0
2015-Jul-22 17:33N 36°55' E 006°55'0 0.0
2015-Jul-21 14:06N 36°55' E 006°55'1 0.0
2015-Jul-20 02:29N 36°55' E 006°56'3 3.6
2015-Jul-20 01:33N 36°58' E 006°54'1111.4
2015-Jul-20 00:33N 37°05' E 006°42'2711.8
2015-Jul-19 22:17N 37°10' E 006°09'1512.6
2015-Jul-19 21:05N 37°09' E 005°51'713.0
2015-Jul-19 20:33N 37°08' E 005°42'1413.6
2015-Jul-19 19:33N 37°07' E 005°25'3913.0
2015-Jul-19 16:33N 37°04' E 004°36'2512.4
2015-Jul-19 14:33N 37°02' E 004°05'1312.8
2015-Jul-19 13:33N 37°01' E 003°49'1312.8
2015-Jul-19 12:33N 37°00' E 003°33'1312.8
2015-Jul-19 11:33N 36°58' E 003°18'1313.2
2015-Jul-19 10:33N 36°55' E 003°01'1313.1
2015-Jul-19 09:33N 36°53' E 002°45'1312.9
2015-Jul-19 08:33N 36°50' E 002°29'2812.9
2015-Jul-19 06:23N 36°44' E 001°55'1313.1
2015-Jul-19 05:25N 36°42' E 001°40'1112.6
2015-Jul-19 04:33N 36°39' E 001°26'5513.6
2015-Jul-19 00:30N 36°31' E 000°19'1513.4
2015-Jul-18 23:22N 36°28' E 000°00'1113.3
2015-Jul-18 22:32N 36°26' W 000°13'1313.2
2015-Jul-18 21:33N 36°24' W 000°29'1413.3
2015-Jul-18 20:32N 36°22' W 000°46'29413.2
2015-Jul-17 22:12N 36°02' W 006°49'813.2
2015-Jul-17 21:34N 36°04' W 006°59'1313.3
2015-Jul-17 20:34N 36°07' W 007°15'1313.1
2015-Jul-17 19:34N 36°11' W 007°31'1313.4
2015-Jul-17 18:34N 36°14' W 007°47'1313.2
2015-Jul-17 17:33N 36°18' W 008°03'1413.4
2015-Jul-17 16:29N 36°21' W 008°20'1313.3
2015-Jul-17 15:28N 36°25' W 008°36'1213.1
2015-Jul-17 14:33N 36°28' W 008°51'2612.8
2015-Jul-17 12:30N 36°38' W 009°21'1313.0
2015-Jul-17 11:31N 36°48' W 009°32'2713.5
2015-Jul-17 09:33N 37°13' W 009°41'1413.4
2015-Jul-17 08:31N 37°27' W 009°44'1413.1
2015-Jul-17 07:27N 37°40' W 009°48'1213.3
2015-Jul-17 06:33N 37°52' W 009°52'1313.1
2015-Jul-17 05:33N 38°04' W 009°57'1312.9
2015-Jul-17 04:33N 38°17' W 009°60'1312.7
2015-Jul-17 03:33N 38°30' W 010°03'1313.1
2015-Jul-17 02:34N 38°42' W 010°06'1312.9
2015-Jul-17 01:33N 38°55' W 010°06'1312.8
2015-Jul-17 00:33N 39°08' W 010°06'1413.4
2015-Jul-16 23:32N 39°22' W 010°06'3113.5
2015-Jul-16 21:14N 39°53' W 010°06'  

Dump ship's entire track history